sensor_id;sensor_type;location;lat;lon;timestamp;temperature;humidity
75471;HTU21D;64051;46.320;48.028;2023-07-31T00:00:37;22.27;64.88
75471;HTU21D;64051;46.320;48.028;2023-07-31T00:03:03;22.26;64.92
75471;HTU21D;64051;46.320;48.028;2023-07-31T00:05:28;22.24;64.92
75471;HTU21D;64051;46.320;48.028;2023-07-31T00:07:54;22.21;65.00
75471;HTU21D;64051;46.320;48.028;2023-07-31T00:10:20;22.17;65.07
75471;HTU21D;64051;46.320;48.028;2023-07-31T00:12:46;22.14;65.20
75471;HTU21D;64051;46.320;48.028;2023-07-31T00:15:14;22.12;65.43
75471;HTU21D;64051;46.320;48.028;2023-07-31T00:17:40;22.11;65.52
75471;HTU21D;64051;46.320;48.028;2023-07-31T00:20:06;22.12;65.69
75471;HTU21D;64051;46.320;48.028;2023-07-31T00:22:32;22.11;65.78
75471;HTU21D;64051;46.320;48.028;2023-07-31T00:24:58;22.12;65.90
75471;HTU21D;64051;46.320;48.028;2023-07-31T00:27:25;22.13;66.04
75471;HTU21D;64051;46.320;48.028;2023-07-31T00:29:51;22.16;66.13
75471;HTU21D;64051;46.320;48.028;2023-07-31T00:32:17;22.14;66.30
75471;HTU21D;64051;46.320;48.028;2023-07-31T00:34:43;22.17;66.49
75471;HTU21D;64051;46.320;48.028;2023-07-31T00:37:08;22.17;66.68
75471;HTU21D;64051;46.320;48.028;2023-07-31T00:39:34;22.17;66.96
75471;HTU21D;64051;46.320;48.028;2023-07-31T00:42:01;22.20;67.11
75471;HTU21D;64051;46.320;48.028;2023-07-31T00:44:27;22.23;67.14
75471;HTU21D;64051;46.320;48.028;2023-07-31T00:46:54;22.23;67.18
75471;HTU21D;64051;46.320;48.028;2023-07-31T00:49:21;22.21;67.16
75471;HTU21D;64051;46.320;48.028;2023-07-31T00:51:48;22.18;67.15
75471;HTU21D;64051;46.320;48.028;2023-07-31T00:54:14;22.12;67.20
75471;HTU21D;64051;46.320;48.028;2023-07-31T00:56:41;22.09;67.10
75471;HTU21D;64051;46.320;48.028;2023-07-31T00:59:07;22.06;67.01
75471;HTU21D;64051;46.320;48.028;2023-07-31T01:01:33;22.02;66.95
75471;HTU21D;64051;46.320;48.028;2023-07-31T01:03:59;21.98;66.85
75471;HTU21D;64051;46.320;48.028;2023-07-31T01:09:45;21.91;66.93
75471;HTU21D;64051;46.320;48.028;2023-07-31T01:12:15;21.88;66.85
75471;HTU21D;64051;46.320;48.028;2023-07-31T01:17:29;21.82;66.91
75471;HTU21D;64051;46.320;48.028;2023-07-31T01:19:56;21.80;67.13
75471;HTU21D;64051;46.320;48.028;2023-07-31T01:28:07;21.70;67.63
75471;HTU21D;64051;46.320;48.028;2023-07-31T01:30:41;21.68;67.66
75471;HTU21D;64051;46.320;48.028;2023-07-31T01:33:07;21.64;67.65
75471;HTU21D;64051;46.320;48.028;2023-07-31T01:35:34;21.62;67.79
75471;HTU21D;64051;46.320;48.028;2023-07-31T01:38:00;21.59;67.97
75471;HTU21D;64051;46.320;48.028;2023-07-31T01:40:26;21.60;68.26
75471;HTU21D;64051;46.320;48.028;2023-07-31T01:42:51;21.61;68.48
75471;HTU21D;64051;46.320;48.028;2023-07-31T01:45:17;21.66;68.59
75471;HTU21D;64051;46.320;48.028;2023-07-31T01:47:43;21.68;68.64
75471;HTU21D;64051;46.320;48.028;2023-07-31T01:50:08;21.73;68.54
75471;HTU21D;64051;46.320;48.028;2023-07-31T01:52:35;21.76;68.42
75471;HTU21D;64051;46.320;48.028;2023-07-31T01:55:01;21.77;68.44
75471;HTU21D;64051;46.320;48.028;2023-07-31T01:57:27;21.76;68.45
75471;HTU21D;64051;46.320;48.028;2023-07-31T01:59:53;21.79;68.41
75471;HTU21D;64051;46.320;48.028;2023-07-31T02:02:19;21.80;68.45
75471;HTU21D;64051;46.320;48.028;2023-07-31T02:04:45;21.81;68.56
75471;HTU21D;64051;46.320;48.028;2023-07-31T02:07:11;21.83;68.65
75471;HTU21D;64051;46.320;48.028;2023-07-31T02:09:36;21.85;68.73
75471;HTU21D;64051;46.320;48.028;2023-07-31T02:12:02;21.85;68.80
75471;HTU21D;64051;46.320;48.028;2023-07-31T02:14:28;21.90;68.87
75471;HTU21D;64051;46.320;48.028;2023-07-31T02:16:53;21.92;68.93
75471;HTU21D;64051;46.320;48.028;2023-07-31T02:19:19;21.96;69.01
75471;HTU21D;64051;46.320;48.028;2023-07-31T02:21:45;22.05;69.04
75471;HTU21D;64051;46.320;48.028;2023-07-31T02:24:11;22.16;69.06
75471;HTU21D;64051;46.320;48.028;2023-07-31T02:26:37;22.27;68.89
75471;HTU21D;64051;46.320;48.028;2023-07-31T02:29:02;22.38;68.83
75471;HTU21D;64051;46.320;48.028;2023-07-31T02:31:28;22.51;68.72
75471;HTU21D;64051;46.320;48.028;2023-07-31T02:33:54;22.62;68.59
75471;HTU21D;64051;46.320;48.028;2023-07-31T02:36:20;22.73;68.37
75471;HTU21D;64051;46.320;48.028;2023-07-31T02:38:46;22.85;68.23
75471;HTU21D;64051;46.320;48.028;2023-07-31T02:41:12;22.97;68.15
75471;HTU21D;64051;46.320;48.028;2023-07-31T02:43:38;23.06;68.01
75471;HTU21D;64051;46.320;48.028;2023-07-31T02:46:04;23.18;67.93
75471;HTU21D;64051;46.320;48.028;2023-07-31T02:48:30;23.27;67.78
75471;HTU21D;64051;46.320;48.028;2023-07-31T02:50:56;23.39;67.69
75471;HTU21D;64051;46.320;48.028;2023-07-31T02:53:22;23.47;67.62
75471;HTU21D;64051;46.320;48.028;2023-07-31T02:55:48;23.57;67.75
75471;HTU21D;64051;46.320;48.028;2023-07-31T02:58:14;23.67;68.08
75471;HTU21D;64051;46.320;48.028;2023-07-31T03:00:44;23.79;68.13
75471;HTU21D;64051;46.320;48.028;2023-07-31T03:03:10;23.89;67.81
75471;HTU21D;64051;46.320;48.028;2023-07-31T03:05:36;24.00;67.66
75471;HTU21D;64051;46.320;48.028;2023-07-31T03:08:02;24.12;67.44
75471;HTU21D;64051;46.320;48.028;2023-07-31T03:10:27;24.21;67.25
75471;HTU21D;64051;46.320;48.028;2023-07-31T03:12:53;24.34;66.94
75471;HTU21D;64051;46.320;48.028;2023-07-31T03:15:19;24.46;66.42
75471;HTU21D;64051;46.320;48.028;2023-07-31T03:17:45;24.57;65.90
75471;HTU21D;64051;46.320;48.028;2023-07-31T03:20:11;24.65;65.46
75471;HTU21D;64051;46.320;48.028;2023-07-31T03:22:37;24.72;64.98
75471;HTU21D;64051;46.320;48.028;2023-07-31T03:25:03;24.78;64.47
75471;HTU21D;64051;46.320;48.028;2023-07-31T03:27:30;24.87;63.75
75471;HTU21D;64051;46.320;48.028;2023-07-31T03:29:56;24.93;63.04
75471;HTU21D;64051;46.320;48.028;2023-07-31T03:32:22;25.03;62.36
75471;HTU21D;64051;46.320;48.028;2023-07-31T03:34:49;25.14;61.76
75471;HTU21D;64051;46.320;48.028;2023-07-31T03:37:15;25.20;61.24
75471;HTU21D;64051;46.320;48.028;2023-07-31T03:39:41;25.31;60.66
75471;HTU21D;64051;46.320;48.028;2023-07-31T03:42:07;25.39;60.15
75471;HTU21D;64051;46.320;48.028;2023-07-31T03:44:32;25.49;59.57
75471;HTU21D;64051;46.320;48.028;2023-07-31T03:46:58;25.59;59.01
75471;HTU21D;64051;46.320;48.028;2023-07-31T03:49:24;25.63;58.46
75471;HTU21D;64051;46.320;48.028;2023-07-31T03:51:50;25.69;58.12
75471;HTU21D;64051;46.320;48.028;2023-07-31T03:54:16;25.74;57.70
75471;HTU21D;64051;46.320;48.028;2023-07-31T03:56:42;25.79;57.35
75471;HTU21D;64051;46.320;48.028;2023-07-31T03:59:08;25.86;57.06
75471;HTU21D;64051;46.320;48.028;2023-07-31T04:01:33;25.93;56.74
75471;HTU21D;64051;46.320;48.028;2023-07-31T04:03:59;26.02;56.48
75471;HTU21D;64051;46.320;48.028;2023-07-31T04:06:25;26.07;56.18
75471;HTU21D;64051;46.320;48.028;2023-07-31T04:08:54;26.15;55.70
75471;HTU21D;64051;46.320;48.028;2023-07-31T04:11:20;26.20;55.42
75471;HTU21D;64051;46.320;48.028;2023-07-31T04:13:46;26.28;55.07
75471;HTU21D;64051;46.320;48.028;2023-07-31T04:16:14;26.36;54.72
75471;HTU21D;64051;46.320;48.028;2023-07-31T04:18:40;26.45;54.39
75471;HTU21D;64051;46.320;48.028;2023-07-31T04:21:06;26.51;54.06
75471;HTU21D;64051;46.320;48.028;2023-07-31T04:23:32;26.60;53.68
75471;HTU21D;64051;46.320;48.028;2023-07-31T04:25:58;26.68;53.41
75471;HTU21D;64051;46.320;48.028;2023-07-31T04:28:27;26.76;53.17
75471;HTU21D;64051;46.320;48.028;2023-07-31T04:30:53;26.80;53.07
75471;HTU21D;64051;46.320;48.028;2023-07-31T04:33:19;26.90;52.69
75471;HTU21D;64051;46.320;48.028;2023-07-31T04:35:50;27.00;52.15
75471;HTU21D;64051;46.320;48.028;2023-07-31T04:38:21;27.10;51.87
75471;HTU21D;64051;46.320;48.028;2023-07-31T04:40:47;27.17;51.67
75471;HTU21D;64051;46.320;48.028;2023-07-31T04:43:13;27.24;51.31
75471;HTU21D;64051;46.320;48.028;2023-07-31T04:45:39;27.34;50.96
75471;HTU21D;64051;46.320;48.028;2023-07-31T04:48:07;27.41;50.57
75471;HTU21D;64051;46.320;48.028;2023-07-31T04:50:33;27.49;50.35
75471;HTU21D;64051;46.320;48.028;2023-07-31T04:52:59;27.56;49.96
75471;HTU21D;64051;46.320;48.028;2023-07-31T04:55:25;27.64;49.56
75471;HTU21D;64051;46.320;48.028;2023-07-31T04:57:51;27.69;49.27
75471;HTU21D;64051;46.320;48.028;2023-07-31T05:00:17;27.78;48.91
75471;HTU21D;64051;46.320;48.028;2023-07-31T05:02:42;27.87;48.52
75471;HTU21D;64051;46.320;48.028;2023-07-31T05:05:08;27.97;48.08
75471;HTU21D;64051;46.320;48.028;2023-07-31T05:07:34;28.06;47.59
75471;HTU21D;64051;46.320;48.028;2023-07-31T05:10:00;28.15;47.11
75471;HTU21D;64051;46.320;48.028;2023-07-31T05:12:26;28.23;46.75
75471;HTU21D;64051;46.320;48.028;2023-07-31T05:14:52;28.28;46.23
75471;HTU21D;64051;46.320;48.028;2023-07-31T05:17:18;28.35;45.79
75471;HTU21D;64051;46.320;48.028;2023-07-31T05:19:44;28.42;45.53
75471;HTU21D;64051;46.320;48.028;2023-07-31T05:22:09;28.45;45.12
75471;HTU21D;64051;46.320;48.028;2023-07-31T05:24:35;28.53;44.91
75471;HTU21D;64051;46.320;48.028;2023-07-31T05:27:01;28.58;44.87
75471;HTU21D;64051;46.320;48.028;2023-07-31T05:29:27;28.62;44.76
75471;HTU21D;64051;46.320;48.028;2023-07-31T05:31:53;28.70;44.49
75471;HTU21D;64051;46.320;48.028;2023-07-31T05:34:19;28.76;44.25
75471;HTU21D;64051;46.320;48.028;2023-07-31T05:36:45;28.86;43.93
75471;HTU21D;64051;46.320;48.028;2023-07-31T05:39:11;28.95;43.43
75471;HTU21D;64051;46.320;48.028;2023-07-31T05:41:36;29.05;43.14
75471;HTU21D;64051;46.320;48.028;2023-07-31T05:44:02;29.13;42.84
75471;HTU21D;64051;46.320;48.028;2023-07-31T05:46:28;29.20;42.46
75471;HTU21D;64051;46.320;48.028;2023-07-31T05:48:57;29.28;42.19
75471;HTU21D;64051;46.320;48.028;2023-07-31T05:51:23;29.35;41.93
75471;HTU21D;64051;46.320;48.028;2023-07-31T05:53:48;29.42;41.81
75471;HTU21D;64051;46.320;48.028;2023-07-31T05:56:17;29.45;41.45
75471;HTU21D;64051;46.320;48.028;2023-07-31T05:58:43;29.51;40.98
75471;HTU21D;64051;46.320;48.028;2023-07-31T06:01:12;29.56;40.65
75471;HTU21D;64051;46.320;48.028;2023-07-31T06:03:38;29.61;40.59
75471;HTU21D;64051;46.320;48.028;2023-07-31T06:06:10;29.68;40.49
75471;HTU21D;64051;46.320;48.028;2023-07-31T06:08:36;29.74;40.38
75471;HTU21D;64051;46.320;48.028;2023-07-31T06:11:02;29.78;40.15
75471;HTU21D;64051;46.320;48.028;2023-07-31T06:13:34;29.85;39.98
75471;HTU21D;64051;46.320;48.028;2023-07-31T06:15:59;29.91;39.62
75471;HTU21D;64051;46.320;48.028;2023-07-31T06:18:25;29.97;39.13
75471;HTU21D;64051;46.320;48.028;2023-07-31T06:20:51;30.05;39.19
75471;HTU21D;64051;46.320;48.028;2023-07-31T06:23:23;30.15;39.25
75471;HTU21D;64051;46.320;48.028;2023-07-31T06:25:49;30.22;39.39
75471;HTU21D;64051;46.320;48.028;2023-07-31T06:28:15;30.27;39.33
75471;HTU21D;64051;46.320;48.028;2023-07-31T06:30:41;30.36;39.17
75471;HTU21D;64051;46.320;48.028;2023-07-31T06:33:06;30.42;39.05
75471;HTU21D;64051;46.320;48.028;2023-07-31T06:35:38;30.51;38.74
75471;HTU21D;64051;46.320;48.028;2023-07-31T06:38:04;30.57;38.65
75471;HTU21D;64051;46.320;48.028;2023-07-31T06:40:33;30.64;38.34
75471;HTU21D;64051;46.320;48.028;2023-07-31T06:42:59;30.78;38.25
75471;HTU21D;64051;46.320;48.028;2023-07-31T06:45:25;30.91;37.71
75471;HTU21D;64051;46.320;48.028;2023-07-31T06:47:51;31.01;37.34
75471;HTU21D;64051;46.320;48.028;2023-07-31T06:50:17;31.12;37.11
75471;HTU21D;64051;46.320;48.028;2023-07-31T06:52:43;31.24;37.15
75471;HTU21D;64051;46.320;48.028;2023-07-31T06:55:21;31.37;36.87
75471;HTU21D;64051;46.320;48.028;2023-07-31T06:57:50;31.46;36.81
75471;HTU21D;64051;46.320;48.028;2023-07-31T07:00:17;31.55;36.66
75471;HTU21D;64051;46.320;48.028;2023-07-31T07:02:43;31.66;36.47
75471;HTU21D;64051;46.320;48.028;2023-07-31T07:05:12;31.73;35.66
75471;HTU21D;64051;46.320;48.028;2023-07-31T07:07:38;31.81;35.86
75471;HTU21D;64051;46.320;48.028;2023-07-31T07:10:04;31.87;35.77
75471;HTU21D;64051;46.320;48.028;2023-07-31T07:12:31;31.97;35.64
75471;HTU21D;64051;46.320;48.028;2023-07-31T07:14:59;32.07;35.44
75471;HTU21D;64051;46.320;48.028;2023-07-31T07:17:30;32.14;34.63
75471;HTU21D;64051;46.320;48.028;2023-07-31T07:20:00;32.20;35.54
75471;HTU21D;64051;46.320;48.028;2023-07-31T07:22:26;32.30;34.94
75471;HTU21D;64051;46.320;48.028;2023-07-31T07:24:55;32.31;34.19
75471;HTU21D;64051;46.320;48.028;2023-07-31T07:27:27;32.29;33.99
75471;HTU21D;64051;46.320;48.028;2023-07-31T07:29:53;32.25;34.18
75471;HTU21D;64051;46.320;48.028;2023-07-31T07:32:20;32.26;34.01
75471;HTU21D;64051;46.320;48.028;2023-07-31T07:34:47;32.28;33.52
75471;HTU21D;64051;46.320;48.028;2023-07-31T07:37:16;32.32;33.67
75471;HTU21D;64051;46.320;48.028;2023-07-31T07:39:42;32.43;33.47
75471;HTU21D;64051;46.320;48.028;2023-07-31T07:42:08;32.53;33.24
75471;HTU21D;64051;46.320;48.028;2023-07-31T07:44:34;32.62;32.94
75471;HTU21D;64051;46.320;48.028;2023-07-31T07:47:03;32.67;32.60
75471;HTU21D;64051;46.320;48.028;2023-07-31T07:49:32;32.62;32.38
75471;HTU21D;64051;46.320;48.028;2023-07-31T07:52:02;32.58;32.19
75471;HTU21D;64051;46.320;48.028;2023-07-31T07:54:28;32.57;31.99
75471;HTU21D;64051;46.320;48.028;2023-07-31T07:57:03;32.57;31.93
75471;HTU21D;64051;46.320;48.028;2023-07-31T07:59:31;32.53;31.87
75471;HTU21D;64051;46.320;48.028;2023-07-31T08:01:57;32.44;32.09
75471;HTU21D;64051;46.320;48.028;2023-07-31T08:04:23;32.31;32.11
75471;HTU21D;64051;46.320;48.028;2023-07-31T08:06:49;32.19;32.15
75471;HTU21D;64051;46.320;48.028;2023-07-31T08:09:24;32.15;32.17
75471;HTU21D;64051;46.320;48.028;2023-07-31T08:11:53;32.27;31.81
75471;HTU21D;64051;46.320;48.028;2023-07-31T08:14:23;32.37;31.50
75471;HTU21D;64051;46.320;48.028;2023-07-31T08:16:55;32.32;30.79
75471;HTU21D;64051;46.320;48.028;2023-07-31T08:19:22;32.13;30.95
75471;HTU21D;64051;46.320;48.028;2023-07-31T08:21:51;31.95;30.81
75471;HTU21D;64051;46.320;48.028;2023-07-31T08:24:19;31.74;30.51
75471;HTU21D;64051;46.320;48.028;2023-07-31T08:26:54;31.59;30.84
75471;HTU21D;64051;46.320;48.028;2023-07-31T08:29:20;31.44;30.87
75471;HTU21D;64051;46.320;48.028;2023-07-31T08:31:46;31.45;30.79
75471;HTU21D;64051;46.320;48.028;2023-07-31T08:34:18;31.61;30.54
75471;HTU21D;64051;46.320;48.028;2023-07-31T08:36:44;31.76;30.54
75471;HTU21D;64051;46.320;48.028;2023-07-31T08:39:22;31.92;30.42
75471;HTU21D;64051;46.320;48.028;2023-07-31T08:41:58;32.10;30.17
75471;HTU21D;64051;46.320;48.028;2023-07-31T08:44:25;32.27;30.42
75471;HTU21D;64051;46.320;48.028;2023-07-31T08:46:57;32.49;30.14
75471;HTU21D;64051;46.320;48.028;2023-07-31T08:49:26;32.68;30.21
75471;HTU21D;64051;46.320;48.028;2023-07-31T08:51:59;32.84;30.19
75471;HTU21D;64051;46.320;48.028;2023-07-31T08:54:29;32.87;29.68
75471;HTU21D;64051;46.320;48.028;2023-07-31T08:56:57;32.78;29.71
75471;HTU21D;64051;46.320;48.028;2023-07-31T08:59:29;32.69;29.71
75471;HTU21D;64051;46.320;48.028;2023-07-31T09:02:08;32.69;30.24
75471;HTU21D;64051;46.320;48.028;2023-07-31T09:04:37;32.85;30.78
75471;HTU21D;64051;46.320;48.028;2023-07-31T09:07:04;33.05;30.37
75471;HTU21D;64051;46.320;48.028;2023-07-31T09:09:40;33.23;30.30
75471;HTU21D;64051;46.320;48.028;2023-07-31T09:12:06;33.41;30.25
75471;HTU21D;64051;46.320;48.028;2023-07-31T09:14:33;33.61;30.20
75471;HTU21D;64051;46.320;48.028;2023-07-31T09:17:03;33.79;29.55
75471;HTU21D;64051;46.320;48.028;2023-07-31T09:19:37;33.93;29.19
75471;HTU21D;64051;46.320;48.028;2023-07-31T09:22:04;34.08;29.44
75471;HTU21D;64051;46.320;48.028;2023-07-31T09:24:34;34.27;29.34
75471;HTU21D;64051;46.320;48.028;2023-07-31T09:27:03;34.42;28.77
75471;HTU21D;64051;46.320;48.028;2023-07-31T09:29:29;34.50;28.08
75471;HTU21D;64051;46.320;48.028;2023-07-31T09:31:58;34.46;27.66
75471;HTU21D;64051;46.320;48.028;2023-07-31T09:34:37;34.36;25.32
75471;HTU21D;64051;46.320;48.028;2023-07-31T09:37:11;34.27;27.19
75471;HTU21D;64051;46.320;48.028;2023-07-31T09:39:47;34.21;26.36
75471;HTU21D;64051;46.320;48.028;2023-07-31T09:42:26;34.12;26.71
75471;HTU21D;64051;46.320;48.028;2023-07-31T09:45:07;34.08;26.36
75471;HTU21D;64051;46.320;48.028;2023-07-31T09:47:39;34.04;26.65
75471;HTU21D;64051;46.320;48.028;2023-07-31T09:50:10;34.03;26.39
75471;HTU21D;64051;46.320;48.028;2023-07-31T09:52:41;33.94;26.02
75471;HTU21D;64051;46.320;48.028;2023-07-31T09:55:08;33.92;26.30
75471;HTU21D;64051;46.320;48.028;2023-07-31T09:57:41;33.99;26.06
75471;HTU21D;64051;46.320;48.028;2023-07-31T10:00:09;34.04;26.15
75471;HTU21D;64051;46.320;48.028;2023-07-31T10:02:37;34.07;26.09
75471;HTU21D;64051;46.320;48.028;2023-07-31T10:05:07;34.11;25.91
75471;HTU21D;64051;46.320;48.028;2023-07-31T10:07:38;34.16;25.85
75471;HTU21D;64051;46.320;48.028;2023-07-31T10:10:08;34.18;25.92
75471;HTU21D;64051;46.320;48.028;2023-07-31T10:12:38;34.23;26.30
75471;HTU21D;64051;46.320;48.028;2023-07-31T10:15:05;34.38;26.45
75471;HTU21D;64051;46.320;48.028;2023-07-31T10:17:34;34.52;26.57
75471;HTU21D;64051;46.320;48.028;2023-07-31T10:20:02;34.63;26.52
75471;HTU21D;64051;46.320;48.028;2023-07-31T10:22:30;34.73;26.62
75471;HTU21D;64051;46.320;48.028;2023-07-31T10:24:58;34.83;26.47
75471;HTU21D;64051;46.320;48.028;2023-07-31T10:27:27;34.91;26.17
75471;HTU21D;64051;46.320;48.028;2023-07-31T10:29:57;34.94;25.56
75471;HTU21D;64051;46.320;48.028;2023-07-31T10:32:25;34.90;25.69
75471;HTU21D;64051;46.320;48.028;2023-07-31T10:34:51;34.91;25.80
75471;HTU21D;64051;46.320;48.028;2023-07-31T10:42:36;35.18;25.47
75471;HTU21D;64051;46.320;48.028;2023-07-31T10:45:10;35.15;25.27
75471;HTU21D;64051;46.320;48.028;2023-07-31T10:47:45;35.18;25.28
75471;HTU21D;64051;46.320;48.028;2023-07-31T10:50:22;35.25;25.19
75471;HTU21D;64051;46.320;48.028;2023-07-31T10:52:51;35.35;25.41
75471;HTU21D;64051;46.320;48.028;2023-07-31T10:55:29;35.45;25.36
75471;HTU21D;64051;46.320;48.028;2023-07-31T10:57:57;35.49;25.36
75471;HTU21D;64051;46.320;48.028;2023-07-31T11:00:28;35.53;25.21
75471;HTU21D;64051;46.320;48.028;2023-07-31T11:03:05;35.59;23.89
75471;HTU21D;64051;46.320;48.028;2023-07-31T11:05:42;35.59;24.87
75471;HTU21D;64051;46.320;48.028;2023-07-31T11:08:15;35.60;24.93
75471;HTU21D;64051;46.320;48.028;2023-07-31T11:10:45;35.55;24.88
75471;HTU21D;64051;46.320;48.028;2023-07-31T11:13:13;35.54;25.04
75471;HTU21D;64051;46.320;48.028;2023-07-31T11:15:39;35.60;24.82
75471;HTU21D;64051;46.320;48.028;2023-07-31T11:18:05;35.54;24.53
75471;HTU21D;64051;46.320;48.028;2023-07-31T11:20:34;35.52;24.48
75471;HTU21D;64051;46.320;48.028;2023-07-31T11:23:02;35.52;24.42
75471;HTU21D;64051;46.320;48.028;2023-07-31T11:25:31;35.53;24.27
75471;HTU21D;64051;46.320;48.028;2023-07-31T11:30:30;35.67;24.55
75471;HTU21D;64051;46.320;48.028;2023-07-31T11:32:56;35.73;24.44
75471;HTU21D;64051;46.320;48.028;2023-07-31T11:35:25;35.82;24.51
75471;HTU21D;64051;46.320;48.028;2023-07-31T11:37:51;35.87;24.24
75471;HTU21D;64051;46.320;48.028;2023-07-31T11:40:18;35.87;23.82
75471;HTU21D;64051;46.320;48.028;2023-07-31T11:42:49;35.73;23.46
75471;HTU21D;64051;46.320;48.028;2023-07-31T11:45:18;35.49;23.33
75471;HTU21D;64051;46.320;48.028;2023-07-31T11:47:54;35.28;23.39
75471;HTU21D;64051;46.320;48.028;2023-07-31T11:50:24;35.22;23.56
75471;HTU21D;64051;46.320;48.028;2023-07-31T11:53:00;35.19;23.30
75471;HTU21D;64051;46.320;48.028;2023-07-31T11:55:27;35.13;23.35
75471;HTU21D;64051;46.320;48.028;2023-07-31T11:57:54;35.12;23.41
75471;HTU21D;64051;46.320;48.028;2023-07-31T12:00:24;35.10;23.66
75471;HTU21D;64051;46.320;48.028;2023-07-31T12:02:54;35.10;23.81
75471;HTU21D;64051;46.320;48.028;2023-07-31T12:05:21;35.11;23.95
75471;HTU21D;64051;46.320;48.028;2023-07-31T12:07:50;35.18;23.91
75471;HTU21D;64051;46.320;48.028;2023-07-31T12:10:26;35.22;23.88
75471;HTU21D;64051;46.320;48.028;2023-07-31T12:13:00;35.26;23.93
75471;HTU21D;64051;46.320;48.028;2023-07-31T12:15:35;35.29;23.94
75471;HTU21D;64051;46.320;48.028;2023-07-31T12:18:09;35.27;24.10
75471;HTU21D;64051;46.320;48.028;2023-07-31T12:20:43;35.24;23.94
75471;HTU21D;64051;46.320;48.028;2023-07-31T12:23:17;35.22;23.91
75471;HTU21D;64051;46.320;48.028;2023-07-31T12:25:44;35.20;24.21
75471;HTU21D;64051;46.320;48.028;2023-07-31T12:28:22;35.26;24.14
75471;HTU21D;64051;46.320;48.028;2023-07-31T12:30:58;35.25;24.35
75471;HTU21D;64051;46.320;48.028;2023-07-31T12:33:49;35.26;24.04
75471;HTU21D;64051;46.320;48.028;2023-07-31T12:36:21;35.23;24.23
75471;HTU21D;64051;46.320;48.028;2023-07-31T12:38:56;35.22;24.08
75471;HTU21D;64051;46.320;48.028;2023-07-31T12:41:26;35.22;24.22
75471;HTU21D;64051;46.320;48.028;2023-07-31T12:43:55;35.23;24.18
75471;HTU21D;64051;46.320;48.028;2023-07-31T12:46:21;35.20;24.08
75471;HTU21D;64051;46.320;48.028;2023-07-31T12:48:47;35.18;24.00
75471;HTU21D;64051;46.320;48.028;2023-07-31T12:51:22;35.21;23.91
75471;HTU21D;64051;46.320;48.028;2023-07-31T12:53:48;35.23;24.18
75471;HTU21D;64051;46.320;48.028;2023-07-31T12:56:14;35.24;24.24
75471;HTU21D;64051;46.320;48.028;2023-07-31T12:58:43;35.26;24.43
75471;HTU21D;64051;46.320;48.028;2023-07-31T13:01:08;35.30;24.49
75471;HTU21D;64051;46.320;48.028;2023-07-31T13:03:34;35.31;24.46
75471;HTU21D;64051;46.320;48.028;2023-07-31T13:06:00;35.31;24.30
75471;HTU21D;64051;46.320;48.028;2023-07-31T13:08:27;35.27;23.94
75471;HTU21D;64051;46.320;48.028;2023-07-31T13:11:05;35.18;24.03
75471;HTU21D;64051;46.320;48.028;2023-07-31T13:13:36;35.12;24.00
75471;HTU21D;64051;46.320;48.028;2023-07-31T13:16:02;35.09;24.08
75471;HTU21D;64051;46.320;48.028;2023-07-31T13:18:31;35.08;24.08
75471;HTU21D;64051;46.320;48.028;2023-07-31T13:20:56;35.05;24.17
75471;HTU21D;64051;46.320;48.028;2023-07-31T13:23:30;35.01;24.21
75471;HTU21D;64051;46.320;48.028;2023-07-31T13:25:59;35.00;24.12
75471;HTU21D;64051;46.320;48.028;2023-07-31T13:28:25;34.96;24.30
75471;HTU21D;64051;46.320;48.028;2023-07-31T13:30:50;34.93;24.38
75471;HTU21D;64051;46.320;48.028;2023-07-31T13:33:19;34.91;24.43
75471;HTU21D;64051;46.320;48.028;2023-07-31T13:35:45;34.88;24.42
75471;HTU21D;64051;46.320;48.028;2023-07-31T13:38:14;34.84;24.27
75471;HTU21D;64051;46.320;48.028;2023-07-31T13:40:40;34.78;24.03
75471;HTU21D;64051;46.320;48.028;2023-07-31T13:43:11;34.75;24.11
75471;HTU21D;64051;46.320;48.028;2023-07-31T13:45:44;34.69;23.84
75471;HTU21D;64051;46.320;48.028;2023-07-31T13:48:13;34.65;24.13
75471;HTU21D;64051;46.320;48.028;2023-07-31T13:50:44;34.62;24.23
75471;HTU21D;64051;46.320;48.028;2023-07-31T13:53:13;34.57;24.42
75471;HTU21D;64051;46.320;48.028;2023-07-31T13:55:42;34.56;24.50
75471;HTU21D;64051;46.320;48.028;2023-07-31T13:58:11;34.51;24.65
75471;HTU21D;64051;46.320;48.028;2023-07-31T14:00:36;34.47;24.76
75471;HTU21D;64051;46.320;48.028;2023-07-31T14:03:02;34.42;24.81
75471;HTU21D;64051;46.320;48.028;2023-07-31T14:05:28;34.38;24.87
75471;HTU21D;64051;46.320;48.028;2023-07-31T14:07:57;34.32;24.98
75471;HTU21D;64051;46.320;48.028;2023-07-31T14:10:23;34.26;25.11
75471;HTU21D;64051;46.320;48.028;2023-07-31T14:12:49;34.20;25.12
75471;HTU21D;64051;46.320;48.028;2023-07-31T14:15:15;34.15;25.26
75471;HTU21D;64051;46.320;48.028;2023-07-31T14:17:44;34.10;25.29
75471;HTU21D;64051;46.320;48.028;2023-07-31T14:20:10;34.05;25.48
75471;HTU21D;64051;46.320;48.028;2023-07-31T14:22:42;34.02;25.58
75471;HTU21D;64051;46.320;48.028;2023-07-31T14:25:23;33.93;25.85
75471;HTU21D;64051;46.320;48.028;2023-07-31T14:27:49;33.83;26.21
75471;HTU21D;64051;46.320;48.028;2023-07-31T14:30:24;33.70;26.72
75471;HTU21D;64051;46.320;48.028;2023-07-31T14:32:49;33.56;27.16
75471;HTU21D;64051;46.320;48.028;2023-07-31T14:35:15;33.46;27.54
75471;HTU21D;64051;46.320;48.028;2023-07-31T14:37:53;33.32;27.94
75471;HTU21D;64051;46.320;48.028;2023-07-31T14:40:19;33.22;28.35
75471;HTU21D;64051;46.320;48.028;2023-07-31T14:42:48;33.11;28.77
75471;HTU21D;64051;46.320;48.028;2023-07-31T14:45:20;32.98;29.14
75471;HTU21D;64051;46.320;48.028;2023-07-31T14:47:49;32.88;29.68
75471;HTU21D;64051;46.320;48.028;2023-07-31T14:50:15;32.76;29.93
75471;HTU21D;64051;46.320;48.028;2023-07-31T14:52:44;32.66;30.46
75471;HTU21D;64051;46.320;48.028;2023-07-31T14:55:13;32.53;30.65
75471;HTU21D;64051;46.320;48.028;2023-07-31T14:57:39;32.41;30.95
75471;HTU21D;64051;46.320;48.028;2023-07-31T15:00:05;32.31;31.23
75471;HTU21D;64051;46.320;48.028;2023-07-31T15:02:41;32.19;31.46
75471;HTU21D;64051;46.320;48.028;2023-07-31T15:05:10;32.09;31.61
75471;HTU21D;64051;46.320;48.028;2023-07-31T15:07:45;31.98;31.81
75471;HTU21D;64051;46.320;48.028;2023-07-31T15:10:28;31.89;32.01
75471;HTU21D;64051;46.320;48.028;2023-07-31T15:12:54;31.80;31.96
75471;HTU21D;64051;46.320;48.028;2023-07-31T15:15:20;31.75;32.09
75471;HTU21D;64051;46.320;48.028;2023-07-31T15:17:55;31.71;32.47
75471;HTU21D;64051;46.320;48.028;2023-07-31T15:20:22;31.64;32.26
75471;HTU21D;64051;46.320;48.028;2023-07-31T15:22:55;31.59;32.50
75471;HTU21D;64051;46.320;48.028;2023-07-31T15:25:30;31.45;32.56
75471;HTU21D;64051;46.320;48.028;2023-07-31T15:28:11;31.33;32.81